Jack Holland — WDF3615 — position and weather

sailwx.info

Track history (hours):
 
Tides and Currents Weather Stations Pressure Air Temp Water Temp Dewpoint Dewpoint Depression Visibility Wind Speed Wind Dir Waves Ship Positions

Jack Holland

Owner: Norfolk Tug Company, Norfolk, VA. More information available from US FCC via Universal Licensing System and Coast Guard Vessel Documentation Center.

Last reported at 2017-Apr-27 21:51 UTC. Time now 2017-Apr-28 10:28 UTC.
Position N 36°55' W 076°20'.

Length 22 m; draft 2.5 m.

Type: Tug. MMSI: 367442020.

Date/timePositionNaut miles runAvg speedWind from/ knotsBaromVisibWave heightAir tempDewpointWater temp
2017-Apr-27 21:51N 36°55' W 076°20'3 8.5
2017-Apr-27 21:31N 36°52' W 076°20'3 6.9
2017-Apr-27 21:01N 36°49' W 076°17'3 5.7
2017-Apr-27 20:31N 36°47' W 076°18'1 1.3
2017-Apr-27 20:01N 36°46' W 076°18'0 0.1
2017-Apr-27 19:30N 36°46' W 076°18'0 0.0
2017-Apr-27 19:00N 36°46' W 076°18'0 0.0
2017-Apr-27 18:31N 36°46' W 076°18'0 0.0
2017-Apr-27 18:00N 36°46' W 076°18'0 0.0
2017-Apr-27 17:31N 36°46' W 076°18'0 0.0
2017-Apr-27 17:00N 36°46' W 076°18'0 0.0
2017-Apr-27 16:31N 36°46' W 076°18'0 0.0
2017-Apr-27 16:00N 36°46' W 076°18'0 0.0
2017-Apr-27 15:31N 36°46' W 076°18'0 0.0
2017-Apr-27 15:01N 36°46' W 076°18'0 0.0
2017-Apr-27 14:01N 36°46' W 076°18'0 0.0
2017-Apr-27 13:31N 36°46' W 076°18'0 0.0
2017-Apr-27 13:00N 36°46' W 076°18'0 0.0
2017-Apr-27 12:31N 36°46' W 076°18'0 0.0
2017-Apr-27 12:01N 36°46' W 076°18'0 0.0
2017-Apr-27 11:31N 36°46' W 076°18'0 0.0
2017-Apr-27 11:01N 36°46' W 076°18'0 0.0
2017-Apr-27 10:31N 36°46' W 076°18'0 0.0
2017-Apr-27 10:01N 36°46' W 076°18'0 0.0
2017-Apr-27 09:31N 36°46' W 076°18'0 0.0
2017-Apr-27 09:01N 36°46' W 076°18'0 0.0
2017-Apr-27 08:31N 36°46' W 076°18'0 0.0
2017-Apr-27 08:01N 36°46' W 076°18'0 0.0
2017-Apr-27 07:31N 36°46' W 076°18'0 0.0
2017-Apr-27 07:01N 36°46' W 076°18'0 0.4
2017-Apr-27 06:31N 36°46' W 076°18'1 2.6
2017-Apr-27 06:01N 36°47' W 076°18'3 5.0
2017-Apr-27 05:30N 36°50' W 076°18'3 5.3
2017-Apr-27 05:01N 36°52' W 076°20'4 5.8
2017-Apr-27 04:22N 36°56' W 076°20'1 0.0
2017-Apr-25 21:38N 36°55' W 076°20'2 7.7
2017-Apr-25 21:21N 36°53' W 076°20'3 7.6
2017-Apr-25 21:00N 36°51' W 076°18'3 5.6
2017-Apr-25 20:30N 36°48' W 076°17'2 3.4
2017-Apr-25 20:00N 36°46' W 076°18'1 1.0
2017-Apr-25 19:30N 36°46' W 076°18'0 0.0
2017-Apr-25 19:01N 36°46' W 076°18'0 0.1
2017-Apr-25 18:31N 36°46' W 076°18'0 0.0
2017-Apr-25 18:01N 36°46' W 076°18'0 0.0
2017-Apr-25 17:31N 36°46' W 076°18'0 0.0
2017-Apr-25 17:00N 36°46' W 076°18'0 0.0
2017-Apr-25 16:31N 36°46' W 076°18'0 0.0
2017-Apr-25 16:01N 36°46' W 076°18'0 0.0
2017-Apr-25 15:31N 36°46' W 076°18'0 0.0
2017-Apr-25 15:01N 36°46' W 076°18'0 0.0
2017-Apr-25 14:31N 36°46' W 076°18'0 0.0
2017-Apr-25 13:31N 36°46' W 076°18'0 0.0
2017-Apr-25 13:01N 36°46' W 076°18'0 0.0
2017-Apr-25 12:30N 36°46' W 076°18'0 0.0
2017-Apr-25 12:01N 36°46' W 076°18'0 0.0
2017-Apr-25 11:30N 36°46' W 076°18'0 0.0
2017-Apr-25 11:01N 36°46' W 076°18'0 0.0
2017-Apr-25 10:30N 36°46' W 076°18'0 0.0
2017-Apr-25 10:00N 36°46' W 076°18'0 0.0
2017-Apr-25 09:30N 36°46' W 076°18'0 0.0
2017-Apr-25 09:00N 36°46' W 076°18'0 0.1
2017-Apr-25 08:31N 36°46' W 076°18'1 1.6
2017-Apr-25 08:01N 36°47' W 076°18'3 5.7
2017-Apr-25 07:31N 36°49' W 076°17'3 6.0
2017-Apr-25 07:01N 36°52' W 076°20'4 0.1
2017-Apr-23 14:07N 36°56' W 076°20'5 8.0
2017-Apr-23 13:30N 36°52' W 076°19'3 5.2
2017-Apr-23 13:01N 36°50' W 076°16'1 1.9
2017-Apr-23 12:31N 36°51' W 076°17'3 5.5
2017-Apr-23 12:00N 36°48' W 076°18'0 0.0
2017-Apr-23 11:31N 36°48' W 076°18'0 0.0
2017-Apr-23 11:01N 36°48' W 076°18'3 5.5
2017-Apr-23 10:30N 36°50' W 076°17'1 1.4
2017-Apr-23 10:00N 36°50' W 076°16'0 0.0
2017-Apr-23 09:27N 36°50' W 076°16'0 0.0
2017-Apr-23 08:22N 36°50' W 076°16'0 0.0
2017-Apr-23 07:49N 36°50' W 076°16'0 0.0
2017-Apr-23 07:29N 36°50' W 076°16'0 0.0
2017-Apr-23 07:00N 36°50' W 076°16'0 0.0
2017-Apr-23 06:28N 36°50' W 076°16'0 0.0
2017-Apr-22 21:49N 36°50' W 076°16'0 0.0
2017-Apr-22 21:30N 36°50' W 076°16'0 0.0
2017-Apr-22 21:00N 36°50' W 076°16'0 0.0
2017-Apr-22 20:31N 36°50' W 076°16'0 0.0
2017-Apr-22 20:00N 36°50' W 076°16'0 0.0
2017-Apr-22 19:30N 36°50' W 076°16'0 0.0
2017-Apr-22 19:00N 36°50' W 076°16'0 0.0
2017-Apr-22 18:29N 36°50' W 076°16'0 0.0
2017-Apr-22 17:53N 36°50' W 076°16'0 0.0
2017-Apr-22 17:31N 36°50' W 076°16'0 0.0
2017-Apr-22 17:00N 36°50' W 076°16'0 0.0
2017-Apr-22 16:31N 36°50' W 076°16'0 0.0
2017-Apr-22 16:00N 36°50' W 076°16'0 0.0
2017-Apr-22 15:30N 36°50' W 076°16'0 0.0
2017-Apr-22 15:01N 36°50' W 076°16'0 0.0
2017-Apr-22 14:31N 36°50' W 076°16'0 0.0
2017-Apr-22 13:30N 36°50' W 076°16'0 0.0
2017-Apr-22 13:01N 36°50' W 076°16'0 0.0
2017-Apr-22 12:30N 36°50' W 076°16'0 0.0
2017-Apr-22 12:01N 36°50' W 076°16'0 0.0
2017-Apr-22 11:30N 36°50' W 076°16'0 0.0
2017-Apr-22 11:01N 36°50' W 076°16'0 0.0
2017-Apr-22 10:30N 36°50' W 076°16'0 0.0
2017-Apr-22 10:01N 36°50' W 076°16'0 0.0
2017-Apr-22 09:30N 36°50' W 076°16'0 0.0
2017-Apr-22 09:00N 36°50' W 076°16'0 0.0
2017-Apr-22 08:31N 36°50' W 076°16'0 0.0
2017-Apr-22 08:00N 36°50' W 076°16'0 0.0
2017-Apr-22 07:30N 36°50' W 076°16'0 0.0
2017-Apr-22 07:01N 36°50' W 076°16'0 0.0
2017-Apr-22 06:31N 36°50' W 076°16'0 0.0
2017-Apr-22 06:00N 36°50' W 076°16'0 0.0
2017-Apr-22 05:31N 36°50' W 076°16'0 0.0
2017-Apr-22 05:00N 36°50' W 076°16'0 0.0
2017-Apr-22 04:31N 36°50' W 076°16'0 0.0
2017-Apr-22 04:01N 36°50' W 076°16'0 0.0
2017-Apr-22 03:31N 36°50' W 076°16'0 0.0
2017-Apr-22 03:01N 36°50' W 076°16'0 0.0
2017-Apr-22 02:30N 36°50' W 076°16'0 0.0
2017-Apr-22 02:01N 36°50' W 076°16'0 0.0
2017-Apr-22 01:30N 36°50' W 076°16'0 0.0
2017-Apr-22 01:00N 36°50' W 076°16'0 0.0
2017-Apr-22 00:30N 36°50' W 076°16'0 0.0
2017-Apr-22 00:01N 36°50' W 076°16'0 0.0
2017-Apr-21 23:30N 36°50' W 076°16'0 0.0
2017-Apr-21 23:01N 36°50' W 076°16'0 0.6
2017-Apr-21 22:30N 36°50' W 076°17'3 6.5
2017-Apr-21 22:00N 36°52' W 076°20'1 1.4
2017-Apr-21 21:30N 36°53' W 076°20'3 0.1
2017-Apr-20 21:17N 36°56' W 076°20'3 7.5
2017-Apr-20 20:53N 36°53' W 076°20'3 8.1
2017-Apr-20 20:30N 36°51' W 076°18'1 2.7
2017-Apr-20 20:00N 36°50' W 076°16'0 0.5
2017-Apr-20 19:30N 36°50' W 076°16'2 3.8
2017-Apr-20 19:00N 36°49' W 076°17'2 4.1
2017-Apr-20 18:30N 36°47' W 076°18'1 1.2
2017-Apr-20 18:00N 36°46' W 076°18'0 0.0
2017-Apr-20 17:30N 36°46' W 076°18'0 0.0
2017-Apr-20 17:00N 36°46' W 076°18'0 0.0
2017-Apr-20 16:30N 36°46' W 076°18'0 0.0
2017-Apr-20 16:00N 36°46' W 076°18'0 0.0
2017-Apr-20 15:30N 36°46' W 076°18'0 0.0
2017-Apr-20 15:00N 36°46' W 076°18'0 0.0
2017-Apr-20 14:30N 36°46' W 076°18'0 0.0
2017-Apr-20 13:30N 36°46' W 076°18'0 0.0
2017-Apr-20 13:00N 36°46' W 076°18'0 0.0
2017-Apr-20 12:30N 36°46' W 076°18'0 0.0
2017-Apr-20 12:00N 36°46' W 076°18'0 0.0
2017-Apr-20 11:30N 36°46' W 076°18'0 0.0
2017-Apr-20 11:00N 36°46' W 076°18'0 0.0
2017-Apr-20 10:30N 36°46' W 076°18'0 0.0
2017-Apr-20 10:00N 36°46' W 076°18'0 0.0
2017-Apr-20 09:30N 36°46' W 076°18'0 0.1
2017-Apr-20 09:00N 36°46' W 076°18'1 2.2
2017-Apr-20 08:30N 36°47' W 076°18'3 5.7
2017-Apr-20 08:00N 36°50' W 076°18'3 6.0
2017-Apr-20 07:30N 36°52' W 076°20'3 6.7
2017-Apr-20 06:59N 36°56' W 076°20'0 0.0
2017-Apr-18 20:17N 36°56' W 076°20'2 8.5
2017-Apr-18 20:00N 36°53' W 076°20'4 7.8
2017-Apr-18 19:30N 36°50' W 076°18'3 6.5
2017-Apr-18 19:00N 36°47' W 076°18'1 1.6
2017-Apr-18 18:30N 36°46' W 076°18'0 0.0
2017-Apr-18 18:00N 36°46' W 076°18'0 0.0
2017-Apr-18 17:30N 36°46' W 076°18'0 0.0
2017-Apr-18 17:00N 36°46' W 076°18'0 0.0
2017-Apr-18 16:30N 36°46' W 076°18'0 0.9
2017-Apr-18 16:00N 36°46' W 076°18'3 6.1
2017-Apr-18 15:30N 36°50' W 076°18'4 7.7
2017-Apr-18 15:00N 36°53' W 076°20'3 5.3
2017-Apr-18 14:30N 36°55' W 076°20'3 2.9
2017-Apr-18 13:30N 36°53' W 076°21'1 1.7
2017-Apr-18 12:59N 36°53' W 076°20'3 1.7
2017-Apr-18 11:24N 36°56' W 076°20'2 6.4
2017-Apr-18 11:00N 36°53' W 076°20'1 2.3
2017-Apr-18 10:30N 36°52' W 076°20'3 7.0
2017-Apr-18 10:00N 36°49' W 076°17'3 5.7
2017-Apr-18 09:30N 36°47' W 076°18'1 1.2
2017-Apr-18 09:00N 36°46' W 076°18'0 0.0
2017-Apr-18 08:30N 36°46' W 076°18'0 0.0
2017-Apr-18 08:01N 36°46' W 076°18'0 0.0
2017-Apr-18 07:30N 36°46' W 076°18'1 1.3
2017-Apr-18 07:01N 36°47' W 076°18'2 4.6
2017-Apr-18 06:30N 36°49' W 076°17'3 5.7
2017-Apr-18 06:00N 36°52' W 076°19'  
Track history (hours):
 
Tides and Currents Weather Stations Pressure Air Temp Water Temp Dewpoint Dewpoint Depression Visibility Wind Speed Wind Dir Waves Ship Positions

Jack Holland

Owner: Norfolk Tug Company, Norfolk, VA. More information available from US FCC via Universal Licensing System and Coast Guard Vessel Documentation Center.

Last reported at 2017-Apr-27 21:51 UTC. Time now 2017-Apr-28 10:28 UTC.
Position N 36°55' W 076°20'.

Length 22 m; draft 2.5 m.

Type: Tug. MMSI: 367442020.

Date/timePositionNaut miles runAvg speedWind from/ knotsBaromVisibWave heightAir tempDewpointWater temp
2017-Apr-27 21:51N 36°55' W 076°20'3 8.5
2017-Apr-27 21:31N 36°52' W 076°20'3 6.9
2017-Apr-27 21:01N 36°49' W 076°17'3 5.7
2017-Apr-27 20:31N 36°47' W 076°18'1 1.3
2017-Apr-27 20:01N 36°46' W 076°18'0 0.1
2017-Apr-27 19:30N 36°46' W 076°18'0 0.0
2017-Apr-27 19:00N 36°46' W 076°18'0 0.0
2017-Apr-27 18:31N 36°46' W 076°18'0 0.0
2017-Apr-27 18:00N 36°46' W 076°18'0 0.0
2017-Apr-27 17:31N 36°46' W 076°18'0 0.0
2017-Apr-27 17:00N 36°46' W 076°18'0 0.0
2017-Apr-27 16:31N 36°46' W 076°18'0 0.0
2017-Apr-27 16:00N 36°46' W 076°18'0 0.0
2017-Apr-27 15:31N 36°46' W 076°18'0 0.0
2017-Apr-27 15:01N 36°46' W 076°18'0 0.0
2017-Apr-27 14:01N 36°46' W 076°18'0 0.0
2017-Apr-27 13:31N 36°46' W 076°18'0 0.0
2017-Apr-27 13:00N 36°46' W 076°18'0 0.0
2017-Apr-27 12:31N 36°46' W 076°18'0 0.0
2017-Apr-27 12:01N 36°46' W 076°18'0 0.0
2017-Apr-27 11:31N 36°46' W 076°18'0 0.0
2017-Apr-27 11:01N 36°46' W 076°18'0 0.0
2017-Apr-27 10:31N 36°46' W 076°18'0 0.0
2017-Apr-27 10:01N 36°46' W 076°18'0 0.0
2017-Apr-27 09:31N 36°46' W 076°18'0 0.0
2017-Apr-27 09:01N 36°46' W 076°18'0 0.0
2017-Apr-27 08:31N 36°46' W 076°18'0 0.0
2017-Apr-27 08:01N 36°46' W 076°18'0 0.0
2017-Apr-27 07:31N 36°46' W 076°18'0 0.0
2017-Apr-27 07:01N 36°46' W 076°18'0 0.4
2017-Apr-27 06:31N 36°46' W 076°18'1 2.6
2017-Apr-27 06:01N 36°47' W 076°18'3 5.0
2017-Apr-27 05:30N 36°50' W 076°18'3 5.3
2017-Apr-27 05:01N 36°52' W 076°20'4 5.8
2017-Apr-27 04:22N 36°56' W 076°20'1 0.0
2017-Apr-25 21:38N 36°55' W 076°20'2 7.7
2017-Apr-25 21:21N 36°53' W 076°20'3 7.6
2017-Apr-25 21:00N 36°51' W 076°18'3 5.6
2017-Apr-25 20:30N 36°48' W 076°17'2 3.4
2017-Apr-25 20:00N 36°46' W 076°18'1 1.0
2017-Apr-25 19:30N 36°46' W 076°18'0 0.0
2017-Apr-25 19:01N 36°46' W 076°18'0 0.1
2017-Apr-25 18:31N 36°46' W 076°18'0 0.0
2017-Apr-25 18:01N 36°46' W 076°18'0 0.0
2017-Apr-25 17:31N 36°46' W 076°18'0 0.0
2017-Apr-25 17:00N 36°46' W 076°18'0 0.0
2017-Apr-25 16:31N 36°46' W 076°18'0 0.0
2017-Apr-25 16:01N 36°46' W 076°18'0 0.0
2017-Apr-25 15:31N 36°46' W 076°18'0 0.0
2017-Apr-25 15:01N 36°46' W 076°18'0 0.0
2017-Apr-25 14:31N 36°46' W 076°18'0 0.0
2017-Apr-25 13:31N 36°46' W 076°18'0 0.0
2017-Apr-25 13:01N 36°46' W 076°18'0 0.0
2017-Apr-25 12:30N 36°46' W 076°18'0 0.0
2017-Apr-25 12:01N 36°46' W 076°18'0 0.0
2017-Apr-25 11:30N 36°46' W 076°18'0 0.0
2017-Apr-25 11:01N 36°46' W 076°18'0 0.0
2017-Apr-25 10:30N 36°46' W 076°18'0 0.0
2017-Apr-25 10:00N 36°46' W 076°18'0 0.0
2017-Apr-25 09:30N 36°46' W 076°18'0 0.0
2017-Apr-25 09:00N 36°46' W 076°18'0 0.1
2017-Apr-25 08:31N 36°46' W 076°18'1 1.6
2017-Apr-25 08:01N 36°47' W 076°18'3 5.7
2017-Apr-25 07:31N 36°49' W 076°17'3 6.0
2017-Apr-25 07:01N 36°52' W 076°20'4 0.1
2017-Apr-23 14:07N 36°56' W 076°20'5 8.0
2017-Apr-23 13:30N 36°52' W 076°19'3 5.2
2017-Apr-23 13:01N 36°50' W 076°16'1 1.9
2017-Apr-23 12:31N 36°51' W 076°17'3 5.5
2017-Apr-23 12:00N 36°48' W 076°18'0 0.0
2017-Apr-23 11:31N 36°48' W 076°18'0 0.0
2017-Apr-23 11:01N 36°48' W 076°18'3 5.5
2017-Apr-23 10:30N 36°50' W 076°17'1 1.4
2017-Apr-23 10:00N 36°50' W 076°16'0 0.0
2017-Apr-23 09:27N 36°50' W 076°16'0 0.0
2017-Apr-23 08:22N 36°50' W 076°16'0 0.0
2017-Apr-23 07:49N 36°50' W 076°16'0 0.0
2017-Apr-23 07:29N 36°50' W 076°16'0 0.0
2017-Apr-23 07:00N 36°50' W 076°16'0 0.0
2017-Apr-23 06:28N 36°50' W 076°16'0 0.0
2017-Apr-22 21:49N 36°50' W 076°16'0 0.0
2017-Apr-22 21:30N 36°50' W 076°16'0 0.0
2017-Apr-22 21:00N 36°50' W 076°16'0 0.0
2017-Apr-22 20:31N 36°50' W 076°16'0 0.0
2017-Apr-22 20:00N 36°50' W 076°16'0 0.0
2017-Apr-22 19:30N 36°50' W 076°16'0 0.0
2017-Apr-22 19:00N 36°50' W 076°16'0 0.0
2017-Apr-22 18:29N 36°50' W 076°16'0 0.0
2017-Apr-22 17:53N 36°50' W 076°16'0 0.0
2017-Apr-22 17:31N 36°50' W 076°16'0 0.0
2017-Apr-22 17:00N 36°50' W 076°16'0 0.0
2017-Apr-22 16:31N 36°50' W 076°16'0 0.0
2017-Apr-22 16:00N 36°50' W 076°16'0 0.0
2017-Apr-22 15:30N 36°50' W 076°16'0 0.0
2017-Apr-22 15:01N 36°50' W 076°16'0 0.0
2017-Apr-22 14:31N 36°50' W 076°16'0 0.0
2017-Apr-22 13:30N 36°50' W 076°16'0 0.0
2017-Apr-22 13:01N 36°50' W 076°16'0 0.0
2017-Apr-22 12:30N 36°50' W 076°16'0 0.0
2017-Apr-22 12:01N 36°50' W 076°16'0 0.0
2017-Apr-22 11:30N 36°50' W 076°16'0 0.0
2017-Apr-22 11:01N 36°50' W 076°16'0 0.0
2017-Apr-22 10:30N 36°50' W 076°16'0 0.0
2017-Apr-22 10:01N 36°50' W 076°16'0 0.0
2017-Apr-22 09:30N 36°50' W 076°16'0 0.0
2017-Apr-22 09:00N 36°50' W 076°16'0 0.0
2017-Apr-22 08:31N 36°50' W 076°16'0 0.0
2017-Apr-22 08:00N 36°50' W 076°16'0 0.0
2017-Apr-22 07:30N 36°50' W 076°16'0 0.0
2017-Apr-22 07:01N 36°50' W 076°16'0 0.0
2017-Apr-22 06:31N 36°50' W 076°16'0 0.0
2017-Apr-22 06:00N 36°50' W 076°16'0 0.0
2017-Apr-22 05:31N 36°50' W 076°16'0 0.0
2017-Apr-22 05:00N 36°50' W 076°16'0 0.0
2017-Apr-22 04:31N 36°50' W 076°16'0 0.0
2017-Apr-22 04:01N 36°50' W 076°16'0 0.0
2017-Apr-22 03:31N 36°50' W 076°16'0 0.0
2017-Apr-22 03:01N 36°50' W 076°16'0 0.0
2017-Apr-22 02:30N 36°50' W 076°16'0 0.0
2017-Apr-22 02:01N 36°50' W 076°16'0 0.0
2017-Apr-22 01:30N 36°50' W 076°16'0 0.0
2017-Apr-22 01:00N 36°50' W 076°16'0 0.0
2017-Apr-22 00:30N 36°50' W 076°16'0 0.0
2017-Apr-22 00:01N 36°50' W 076°16'0 0.0
2017-Apr-21 23:30N 36°50' W 076°16'0 0.0
2017-Apr-21 23:01N 36°50' W 076°16'0 0.6
2017-Apr-21 22:30N 36°50' W 076°17'3 6.5
2017-Apr-21 22:00N 36°52' W 076°20'1 1.4
2017-Apr-21 21:30N 36°53' W 076°20'3 0.1
2017-Apr-20 21:17N 36°56' W 076°20'3 7.5
2017-Apr-20 20:53N 36°53' W 076°20'3 8.1
2017-Apr-20 20:30N 36°51' W 076°18'1 2.7
2017-Apr-20 20:00N 36°50' W 076°16'0 0.5
2017-Apr-20 19:30N 36°50' W 076°16'2 3.8
2017-Apr-20 19:00N 36°49' W 076°17'2 4.1
2017-Apr-20 18:30N 36°47' W 076°18'1 1.2
2017-Apr-20 18:00N 36°46' W 076°18'0 0.0
2017-Apr-20 17:30N 36°46' W 076°18'0 0.0
2017-Apr-20 17:00N 36°46' W 076°18'0 0.0
2017-Apr-20 16:30N 36°46' W 076°18'0 0.0
2017-Apr-20 16:00N 36°46' W 076°18'0 0.0
2017-Apr-20 15:30N 36°46' W 076°18'0 0.0
2017-Apr-20 15:00N 36°46' W 076°18'0 0.0
2017-Apr-20 14:30N 36°46' W 076°18'0 0.0
2017-Apr-20 13:30N 36°46' W 076°18'0 0.0
2017-Apr-20 13:00N 36°46' W 076°18'0 0.0
2017-Apr-20 12:30N 36°46' W 076°18'0 0.0
2017-Apr-20 12:00N 36°46' W 076°18'0 0.0
2017-Apr-20 11:30N 36°46' W 076°18'0 0.0
2017-Apr-20 11:00N 36°46' W 076°18'0 0.0
2017-Apr-20 10:30N 36°46' W 076°18'0 0.0
2017-Apr-20 10:00N 36°46' W 076°18'0 0.0
2017-Apr-20 09:30N 36°46' W 076°18'0 0.1
2017-Apr-20 09:00N 36°46' W 076°18'1 2.2
2017-Apr-20 08:30N 36°47' W 076°18'3 5.7
2017-Apr-20 08:00N 36°50' W 076°18'3 6.0
2017-Apr-20 07:30N 36°52' W 076°20'3 6.7
2017-Apr-20 06:59N 36°56' W 076°20'0 0.0
2017-Apr-18 20:17N 36°56' W 076°20'2 8.5
2017-Apr-18 20:00N 36°53' W 076°20'4 7.8
2017-Apr-18 19:30N 36°50' W 076°18'3 6.5
2017-Apr-18 19:00N 36°47' W 076°18'1 1.6
2017-Apr-18 18:30N 36°46' W 076°18'0 0.0
2017-Apr-18 18:00N 36°46' W 076°18'0 0.0
2017-Apr-18 17:30N 36°46' W 076°18'0 0.0
2017-Apr-18 17:00N 36°46' W 076°18'0 0.0
2017-Apr-18 16:30N 36°46' W 076°18'0 0.9
2017-Apr-18 16:00N 36°46' W 076°18'3 6.1
2017-Apr-18 15:30N 36°50' W 076°18'4 7.7
2017-Apr-18 15:00N 36°53' W 076°20'3 5.3
2017-Apr-18 14:30N 36°55' W 076°20'3 2.9
2017-Apr-18 13:30N 36°53' W 076°21'1 1.7
2017-Apr-18 12:59N 36°53' W 076°20'3 1.7
2017-Apr-18 11:24N 36°56' W 076°20'2 6.4
2017-Apr-18 11:00N 36°53' W 076°20'1 2.3
2017-Apr-18 10:30N 36°52' W 076°20'3 7.0
2017-Apr-18 10:00N 36°49' W 076°17'3 5.7
2017-Apr-18 09:30N 36°47' W 076°18'1 1.2
2017-Apr-18 09:00N 36°46' W 076°18'0 0.0
2017-Apr-18 08:30N 36°46' W 076°18'0 0.0
2017-Apr-18 08:01N 36°46' W 076°18'0 0.0
2017-Apr-18 07:30N 36°46' W 076°18'1 1.3
2017-Apr-18 07:01N 36°47' W 076°18'2 4.6
2017-Apr-18 06:30N 36°49' W 076°17'3 5.7
2017-Apr-18 06:00N 36°52' W 076°19'  

Dump ship's entire track history